createdAt,value
2018-11-27T00:01:22.666Z,11.40
2018-11-27T00:03:54.376Z,12.23
2018-11-27T00:06:22.669Z,11.22
2018-11-27T00:08:50.404Z,11.25
2018-11-27T00:11:18.121Z,13.13
2018-11-27T00:13:45.789Z,12.82
2018-11-27T00:16:13.437Z,15.48
2018-11-27T00:18:41.077Z,14.50
2018-11-27T00:21:08.686Z,12.35
2018-11-27T00:23:37.344Z,17.60
2018-11-27T00:26:05.241Z,13.45
2018-11-27T00:28:32.909Z,14.28
2018-11-27T00:31:00.589Z,12.93
2018-11-27T00:33:28.309Z,16.42
2018-11-27T00:35:55.994Z,13.80
2018-11-27T00:38:23.409Z,17.48
2018-11-27T00:40:50.798Z,14.98
2018-11-27T00:43:18.205Z,11.53
2018-11-27T00:45:45.613Z,14.63
2018-11-27T00:48:13.025Z,10.32
2018-11-27T00:50:40.421Z,14.40
2018-11-27T00:53:07.833Z,17.62
2018-11-27T00:55:35.277Z,13.83
2018-11-27T00:58:02.685Z,12.80
2018-11-27T01:00:30.097Z,14.45
2018-11-27T01:02:57.513Z,13.88
2018-11-27T01:05:24.933Z,13.62
2018-11-27T01:07:52.359Z,17.23
2018-11-27T01:10:21.695Z,17.07
2018-11-27T01:12:49.605Z,16.48
2018-11-27T01:15:17.040Z,17.67
2018-11-27T01:17:45.737Z,17.85
2018-11-27T01:20:15.117Z,12.13
2018-11-27T01:22:42.568Z,12.95
2018-11-27T01:25:10.466Z,14.65
2018-11-27T01:27:37.917Z,13.20
2018-11-27T01:30:09.013Z,14.63
2018-11-27T01:32:36.457Z,15.08
2018-11-27T01:35:09.100Z,15.95
2018-11-27T01:37:36.529Z,13.05
2018-11-27T01:40:10.169Z,23.45
2018-11-27T01:42:37.647Z,16.77
2018-11-27T01:45:07.002Z,17.35
2018-11-27T01:47:34.409Z,12.98
2018-11-27T01:50:01.852Z,13.83
2018-11-27T01:52:29.241Z,12.35
2018-11-27T01:54:56.631Z,15.88
2018-11-27T01:57:24.050Z,13.53
2018-11-27T01:59:51.441Z,19.62
2018-11-27T02:02:18.852Z,19.60
2018-11-27T02:04:46.267Z,13.83
2018-11-27T02:07:13.669Z,15.03
2018-11-27T02:09:41.074Z,14.83
2018-11-27T02:12:08.512Z,15.50
2018-11-27T02:14:35.905Z,12.45
2018-11-27T02:17:03.301Z,13.65
2018-11-27T02:19:30.765Z,12.58
2018-11-27T02:21:58.173Z,17.73
2018-11-27T02:24:25.654Z,15.40
2018-11-27T02:26:53.025Z,15.75
2018-11-27T02:29:20.417Z,12.53
2018-11-27T02:31:47.837Z,20.02
2018-11-27T02:34:15.229Z,13.62
2018-11-27T02:36:42.665Z,13.38
2018-11-27T02:39:10.081Z,13.72
2018-11-27T02:41:37.478Z,16.48
2018-11-27T02:44:04.962Z,15.03
2018-11-27T02:46:32.382Z,17.35
2018-11-27T02:49:03.361Z,19.25
2018-11-27T02:51:30.757Z,19.35
2018-11-27T02:53:58.201Z,16.62
2018-11-27T02:56:25.594Z,12.23
2018-11-27T02:58:52.995Z,17.77
2018-11-27T03:01:21.402Z,18.05
2018-11-27T03:03:48.786Z,13.98
2018-11-27T03:06:16.214Z,15.30
2018-11-27T03:08:43.621Z,13.75
2018-11-27T03:11:11.041Z,14.63
2018-11-27T03:13:38.429Z,16.02
2018-11-27T03:16:05.861Z,12.10
2018-11-27T03:18:33.263Z,14.45
2018-11-27T03:21:00.653Z,11.45
2018-11-27T03:23:28.065Z,17.02
2018-11-27T03:25:55.473Z,15.23
2018-11-27T03:28:22.877Z,13.18
2018-11-27T03:30:50.290Z,20.72
2018-11-27T03:33:17.686Z,12.68
2018-11-27T03:35:45.085Z,16.35
2018-11-27T03:38:12.498Z,12.82
2018-11-27T03:40:39.913Z,12.28
2018-11-27T03:43:07.338Z,14.50
2018-11-27T03:45:34.959Z,13.32
2018-11-27T03:48:02.386Z,18.65
2018-11-27T03:50:30.853Z,17.23
2018-11-27T03:52:58.342Z,12.15
2018-11-27T03:55:25.720Z,21.00
2018-11-27T03:57:53.409Z,16.05
2018-11-27T04:00:24.389Z,12.75
2018-11-27T04:02:55.238Z,13.38
2018-11-27T04:05:23.682Z,12.20
2018-11-27T04:07:51.081Z,16.77
2018-11-27T04:10:19.118Z,15.80
2018-11-27T04:12:46.545Z,14.73
2018-11-27T04:15:14.008Z,12.50
2018-11-27T04:17:41.481Z,13.25
2018-11-27T04:20:09.890Z,14.23
2018-11-27T04:22:37.867Z,14.60
2018-11-27T04:25:07.278Z,15.72
2018-11-27T04:27:34.689Z,13.90
2018-11-27T04:30:02.099Z,15.35
2018-11-27T04:32:29.515Z,13.15
2018-11-27T04:34:56.918Z,14.87
2018-11-27T04:37:24.322Z,18.37
2018-11-27T04:39:51.769Z,14.73
2018-11-27T04:42:19.187Z,13.53
2018-11-27T04:44:46.585Z,13.45
2018-11-27T04:47:13.993Z,11.03
2018-11-27T04:49:41.412Z,16.60
2018-11-27T04:52:08.794Z,16.02
2018-11-27T04:54:36.185Z,12.78
2018-11-27T04:57:03.657Z,14.63
2018-11-27T04:59:31.045Z,19.82
2018-11-27T05:01:58.453Z,17.07
2018-11-27T05:04:25.873Z,12.20
2018-11-27T05:06:53.325Z,18.75
2018-11-27T05:09:20.698Z,13.53
2018-11-27T05:11:48.117Z,13.10
2018-11-27T05:14:15.515Z,12.75
2018-11-27T05:16:42.925Z,17.90
2018-11-27T05:19:10.333Z,17.87
2018-11-27T05:21:37.736Z,19.40
2018-11-27T05:24:06.020Z,14.95
2018-11-27T05:26:33.428Z,15.28
2018-11-27T05:29:05.331Z,15.15
2018-11-27T05:31:32.757Z,11.78
2018-11-27T05:34:00.197Z,12.43
2018-11-27T05:36:27.621Z,15.90
2018-11-27T05:38:55.030Z,13.13
2018-11-27T05:41:22.445Z,16.87
2018-11-27T05:43:49.834Z,13.62
2018-11-27T05:46:17.250Z,14.75
2018-11-27T05:48:44.661Z,22.25
2018-11-27T05:51:12.901Z,17.52
2018-11-27T05:53:40.317Z,15.00
2018-11-27T05:56:07.721Z,15.10
2018-11-27T05:58:35.125Z,21.27
2018-11-27T06:01:02.544Z,15.75
2018-11-27T06:03:29.941Z,14.00
2018-11-27T06:05:57.602Z,18.25
2018-11-27T06:08:25.334Z,16.87
2018-11-27T06:10:53.090Z,11.95
2018-11-27T06:13:20.815Z,17.77
2018-11-27T06:15:48.546Z,18.15
2018-11-27T06:18:16.335Z,19.05
2018-11-27T06:20:44.194Z,22.80
2018-11-27T06:23:11.906Z,14.43
2018-11-27T06:25:39.606Z,14.20
2018-11-27T06:28:07.787Z,14.50
2018-11-27T06:30:35.702Z,14.65
2018-11-27T06:33:03.485Z,16.60
2018-11-27T06:35:35.863Z,14.68
2018-11-27T06:38:15.938Z,15.20
2018-11-27T06:40:43.369Z,15.78
2018-11-27T06:43:11.689Z,12.45
2018-11-27T06:45:40.285Z,18.92
2018-11-27T06:48:08.109Z,16.25
2018-11-27T06:50:35.583Z,16.23
2018-11-27T06:53:03.193Z,20.65
2018-11-27T06:55:30.605Z,11.80
2018-11-27T06:57:57.999Z,14.38
2018-11-27T07:00:27.266Z,19.57
2018-11-27T07:02:55.445Z,17.87
2018-11-27T07:05:22.877Z,13.88
2018-11-27T07:07:50.294Z,19.35
2018-11-27T07:10:21.949Z,22.00
2018-11-27T07:12:50.702Z,17.55
2018-11-27T07:15:19.386Z,22.42
2018-11-27T07:17:46.789Z,16.70
2018-11-27T07:20:14.201Z,12.10
2018-11-27T07:22:41.631Z,14.65
2018-11-27T07:25:13.129Z,14.98
2018-11-27T07:27:41.897Z,17.32
2018-11-27T07:30:13.790Z,17.87
2018-11-27T07:32:41.218Z,16.05
2018-11-27T07:35:10.133Z,18.00
2018-11-27T07:37:37.538Z,16.90
2018-11-27T07:40:09.651Z,24.52
2018-11-27T07:42:37.081Z,19.12
2018-11-27T07:45:06.394Z,15.25
2018-11-27T07:47:33.788Z,15.58
2018-11-27T07:50:03.408Z,18.90
2018-11-27T07:52:32.913Z,20.15
2018-11-27T07:55:00.354Z,13.22
2018-11-27T07:57:27.754Z,16.50
2018-11-27T07:59:55.164Z,18.07
2018-11-27T08:02:22.565Z,13.88
2018-11-27T08:04:49.973Z,21.90
2018-11-27T08:07:17.390Z,15.28
2018-11-27T08:09:44.785Z,17.10
2018-11-27T08:12:12.193Z,20.45
2018-11-27T08:14:39.605Z,13.72
2018-11-27T08:17:07.031Z,15.83
2018-11-27T08:19:34.460Z,23.95
2018-11-27T08:22:01.876Z,22.15
2018-11-27T08:24:29.297Z,13.10
2018-11-27T08:26:56.721Z,23.80
2018-11-27T08:29:24.161Z,18.82
2018-11-27T08:31:51.598Z,19.65
2018-11-27T08:34:19.005Z,18.42
2018-11-27T08:36:46.405Z,20.30
2018-11-27T08:39:13.821Z,18.07
2018-11-27T08:41:41.213Z,16.73
2018-11-27T08:44:08.625Z,13.43
2018-11-27T08:46:36.035Z,16.77
2018-11-27T08:49:03.501Z,23.00
2018-11-27T08:51:30.898Z,23.15
2018-11-27T08:53:58.299Z,15.30
2018-11-27T08:56:29.358Z,17.20
2018-11-27T08:58:56.749Z,17.73
2018-11-27T09:01:24.165Z,19.50
2018-11-27T09:03:51.638Z,18.32
2018-11-27T09:06:19.081Z,15.72
2018-11-27T09:08:46.501Z,18.85
2018-11-27T09:11:13.933Z,14.73
2018-11-27T09:13:42.256Z,12.78
2018-11-27T09:16:08.781Z,14.85
2018-11-27T09:18:36.196Z,14.78
2018-11-27T09:21:03.629Z,14.55
2018-11-27T09:23:31.045Z,13.88
2018-11-27T09:25:58.489Z,13.95
2018-11-27T09:28:25.921Z,19.73
2018-11-27T09:30:53.335Z,15.80
2018-11-27T09:33:20.773Z,13.25
2018-11-27T09:35:48.190Z,18.12
2018-11-27T09:38:15.621Z,13.00
2018-11-27T09:40:43.129Z,19.10
2018-11-27T09:43:10.533Z,17.48
2018-11-27T09:45:39.335Z,16.23
2018-11-27T09:48:06.767Z,19.73
2018-11-27T09:50:34.160Z,14.45
2018-11-27T09:53:01.600Z,13.35
2018-11-27T09:55:29.011Z,17.57
2018-11-27T09:57:58.962Z,17.55
2018-11-27T10:00:26.097Z,17.05
2018-11-27T10:02:55.711Z,19.25
2018-11-27T10:05:23.152Z,19.52
2018-11-27T10:07:50.582Z,14.18
2018-11-27T10:10:20.441Z,17.25
2018-11-27T10:12:51.649Z,18.65
2018-11-27T10:15:20.193Z,15.08
2018-11-27T10:17:52.987Z,18.70
2018-11-27T10:20:21.541Z,15.10
2018-11-27T10:22:48.947Z,15.65
2018-11-27T10:25:16.370Z,14.50
2018-11-27T10:27:44.319Z,17.30
2018-11-27T10:30:13.152Z,23.30
2018-11-27T10:32:40.623Z,17.37
2018-11-27T10:35:10.193Z,16.35
2018-11-27T10:37:37.640Z,16.50
2018-11-27T10:40:06.549Z,14.33
2018-11-27T10:42:33.957Z,13.10
2018-11-27T10:45:01.386Z,17.37
2018-11-27T10:47:28.849Z,17.17
2018-11-27T10:49:56.265Z,14.65
2018-11-27T10:52:23.693Z,17.92
2018-11-27T10:54:51.096Z,15.48
2018-11-27T10:57:18.529Z,15.85
2018-11-27T10:59:49.757Z,16.60
2018-11-27T11:02:22.696Z,18.77
2018-11-27T11:04:53.729Z,16.23
2018-11-27T11:07:21.150Z,16.75
2018-11-27T11:09:48.573Z,14.00
2018-11-27T11:12:15.997Z,24.07
2018-11-27T11:14:43.386Z,18.35
2018-11-27T11:17:10.797Z,20.80
2018-11-27T11:19:41.961Z,18.07
2018-11-27T11:22:09.384Z,19.48
2018-11-27T11:24:36.797Z,15.65
2018-11-27T11:27:04.265Z,17.48
2018-11-27T11:29:31.656Z,14.47
2018-11-27T11:31:59.069Z,15.25
2018-11-27T11:34:26.489Z,15.85
2018-11-27T11:36:53.905Z,18.12
2018-11-27T11:39:21.321Z,17.02
2018-11-27T11:41:48.737Z,17.85
2018-11-27T11:44:16.133Z,21.97
2018-11-27T11:46:43.529Z,18.70
2018-11-27T11:49:10.945Z,18.40
2018-11-27T11:51:38.342Z,14.38
2018-11-27T11:54:05.765Z,21.55
2018-11-27T11:56:33.189Z,18.50
2018-11-27T11:59:00.577Z,19.67
2018-11-27T12:01:28.017Z,17.15
2018-11-27T12:03:55.452Z,21.93
2018-11-27T12:06:22.841Z,19.27
2018-11-27T12:08:50.233Z,17.10
2018-11-27T12:11:17.657Z,23.75
2018-11-27T12:13:45.063Z,20.80
2018-11-27T12:16:12.477Z,17.57
2018-11-27T12:18:39.883Z,18.75
2018-11-27T12:21:07.302Z,22.87
2018-11-27T12:23:34.763Z,26.07
2018-11-27T12:26:02.215Z,20.10
2018-11-27T12:28:29.609Z,21.57
2018-11-27T12:30:57.014Z,21.42
2018-11-27T12:33:24.429Z,16.20
2018-11-27T12:35:51.837Z,19.55
2018-11-27T12:38:27.429Z,26.42
2018-11-27T12:40:54.833Z,23.40
2018-11-27T12:46:22.581Z,22.77
2018-11-27T12:48:49.981Z,22.60
2018-11-27T12:51:17.868Z,17.23
2018-11-27T12:53:44.809Z,20.40
2018-11-27T12:56:12.213Z,16.82
2018-11-27T12:58:39.641Z,23.57
2018-11-27T13:01:09.497Z,18.20
2018-11-27T13:03:34.493Z,20.90
2018-11-27T13:06:01.966Z,21.17
2018-11-27T13:08:29.357Z,21.68
2018-11-27T13:10:56.749Z,18.55
2018-11-27T13:13:24.187Z,21.55
2018-11-27T13:15:51.591Z,20.00
2018-11-27T13:18:19.077Z,19.25
2018-11-27T13:20:46.493Z,22.35
2018-11-27T13:23:13.893Z,22.20
2018-11-27T13:25:41.297Z,17.20
2018-11-27T13:28:13.433Z,18.57
2018-11-27T13:30:58.785Z,20.95
2018-11-27T13:33:33.014Z,24.25
2018-11-27T13:36:00.430Z,16.52
2018-11-27T13:38:27.893Z,17.75
2018-11-27T13:40:55.425Z,17.77
2018-11-27T13:43:24.293Z,21.80
2018-11-27T13:45:51.801Z,21.27
2018-11-27T13:48:19.258Z,23.10
2018-11-27T13:50:46.650Z,18.15
2018-11-27T13:53:14.144Z,21.65
2018-11-27T13:55:41.567Z,24.60
2018-11-27T13:58:08.982Z,18.48
2018-11-27T14:00:36.426Z,18.05
2018-11-27T14:03:04.021Z,19.48
2018-11-27T14:05:31.446Z,22.22
2018-11-27T14:07:58.877Z,22.90
2018-11-27T14:10:26.289Z,17.62
2018-11-27T14:12:53.719Z,24.20
2018-11-27T14:15:24.243Z,16.70
2018-11-27T14:17:51.737Z,30.82
2018-11-27T14:20:19.242Z,23.65
2018-11-27T14:22:47.613Z,23.60
2018-11-27T14:25:15.183Z,21.82
2018-11-27T14:27:47.337Z,24.77
2018-11-27T14:30:20.121Z,20.05
2018-11-27T14:32:47.764Z,24.87
2018-11-27T14:35:15.838Z,21.60
2018-11-27T14:37:43.973Z,19.67
2018-11-27T14:40:13.501Z,26.80
2018-11-27T14:42:40.900Z,22.37
2018-11-27T14:45:10.918Z,21.52
2018-11-27T14:47:38.336Z,19.32
2018-11-27T14:50:07.840Z,22.42
2018-11-27T14:52:35.245Z,27.77
2018-11-27T14:55:02.701Z,21.42
2018-11-27T14:57:30.118Z,21.80
2018-11-27T14:59:57.505Z,16.97
2018-11-27T15:02:24.918Z,19.17
2018-11-27T15:04:52.337Z,26.35
2018-11-27T15:07:23.617Z,29.18
2018-11-27T15:09:51.029Z,22.42
2018-11-27T15:12:18.449Z,28.38
2018-11-27T15:14:45.861Z,20.45
2018-11-27T15:17:15.194Z,17.37
2018-11-27T15:19:42.644Z,23.20
2018-11-27T15:22:10.085Z,21.75
2018-11-27T15:24:37.534Z,18.00
2018-11-27T15:27:05.366Z,21.73
2018-11-27T15:29:32.978Z,21.87
2018-11-27T15:32:01.013Z,22.17
2018-11-27T15:34:28.455Z,25.27
2018-11-27T15:36:55.853Z,23.95
2018-11-27T15:39:23.258Z,27.82
2018-11-27T15:41:50.679Z,24.63
2018-11-27T15:44:18.104Z,26.42
2018-11-27T15:46:45.501Z,19.67
2018-11-27T15:49:16.349Z,34.48
2018-11-27T15:51:43.752Z,25.48
2018-11-27T15:54:11.152Z,24.80
2018-11-27T15:56:38.575Z,18.70
2018-11-27T15:59:05.985Z,22.80
2018-11-27T16:01:33.465Z,31.77
2018-11-27T16:04:00.898Z,33.13
2018-11-27T16:06:28.337Z,29.50
2018-11-27T16:08:55.765Z,22.17
2018-11-27T16:11:23.189Z,23.05
2018-11-27T16:13:55.348Z,25.40
2018-11-27T16:16:18.014Z,32.03
2018-11-27T16:18:45.433Z,23.45
2018-11-27T16:21:16.145Z,23.15
2018-11-27T16:23:43.557Z,24.43
2018-11-27T16:26:10.993Z,22.27
2018-11-27T16:28:38.401Z,29.45
2018-11-27T16:31:05.913Z,22.67
2018-11-27T16:33:33.317Z,30.23
2018-11-27T16:36:00.770Z,23.70
2018-11-27T16:38:28.197Z,25.85
2018-11-27T16:40:55.690Z,18.32
2018-11-27T16:43:23.099Z,31.55
2018-11-27T16:45:50.506Z,27.85
2018-11-27T16:48:17.921Z,31.27
2018-11-27T16:50:45.317Z,26.15
2018-11-27T16:53:12.745Z,46.15
2018-11-27T16:55:40.161Z,28.52
2018-11-27T16:58:07.569Z,22.58
2018-11-27T17:00:35.062Z,24.35
2018-11-27T17:03:03.751Z,34.20
2018-11-27T17:05:40.445Z,29.10
2018-11-27T17:08:07.901Z,31.37
2018-11-27T17:10:35.789Z,32.58
2018-11-27T17:13:05.620Z,28.80
2018-11-27T17:15:33.054Z,26.60
2018-11-27T17:18:00.480Z,25.48
2018-11-27T17:20:32.211Z,30.00
2018-11-27T17:23:00.792Z,27.07
2018-11-27T17:25:28.210Z,27.77
2018-11-27T17:27:57.294Z,23.47
2018-11-27T17:30:31.030Z,31.93
2018-11-27T17:32:59.232Z,23.85
2018-11-27T17:35:26.179Z,33.78
2018-11-27T17:37:53.735Z,35.05
2018-11-27T17:40:21.181Z,34.08
2018-11-27T17:42:48.637Z,28.20
2018-11-27T17:45:16.197Z,25.15
2018-11-27T17:47:44.458Z,36.60
2018-11-27T17:50:14.046Z,32.42
2018-11-27T17:52:41.563Z,27.85
2018-11-27T17:55:10.339Z,30.50
2018-11-27T17:57:37.897Z,27.75
2018-11-27T18:00:11.689Z,28.95
2018-11-27T18:02:43.922Z,18.12
2018-11-27T18:05:11.378Z,38.40
2018-11-27T18:07:38.784Z,27.85
2018-11-27T18:10:10.369Z,28.40
2018-11-27T18:12:37.804Z,21.68
2018-11-27T18:15:08.637Z,31.48
2018-11-27T18:17:36.062Z,25.32
2018-11-27T18:20:08.761Z,29.35
2018-11-27T18:22:36.401Z,19.60
2018-11-27T18:25:04.946Z,24.92
2018-11-27T18:27:32.450Z,30.25
2018-11-27T18:30:00.875Z,22.45
2018-11-27T18:32:28.358Z,25.37
2018-11-27T18:34:55.788Z,27.10
2018-11-27T18:37:23.226Z,24.82
2018-11-27T18:39:50.643Z,17.42
2018-11-27T18:42:18.113Z,25.52
2018-11-27T18:44:45.559Z,29.45
2018-11-27T18:47:12.957Z,27.22
2018-11-27T18:49:40.365Z,22.07
2018-11-27T18:52:07.816Z,22.05
2018-11-27T18:54:35.646Z,23.73
2018-11-27T18:57:03.125Z,24.27
2018-11-27T18:59:30.899Z,26.93
2018-11-27T19:01:58.434Z,22.87
2018-11-27T19:04:26.204Z,25.80
2018-11-27T19:06:54.009Z,26.02
2018-11-27T19:09:25.522Z,27.15
2018-11-27T19:11:54.289Z,21.45
2018-11-27T19:14:28.199Z,28.80
2018-11-27T19:16:56.244Z,31.07
2018-11-27T19:19:24.070Z,21.40
2018-11-27T19:21:52.591Z,25.82
2018-11-27T19:24:24.940Z,21.85
2018-11-27T19:26:53.810Z,25.92
2018-11-27T19:29:22.279Z,21.57
2018-11-27T19:31:51.034Z,30.15
2018-11-27T19:34:19.460Z,23.90
2018-11-27T19:36:48.162Z,26.20
2018-11-27T19:39:16.910Z,20.77
2018-11-27T19:41:46.239Z,26.15
2018-11-27T19:44:16.030Z,33.98
2018-11-27T19:46:47.001Z,33.55
2018-11-27T19:49:16.911Z,26.05
2018-11-27T19:51:46.902Z,31.95
2018-11-27T19:54:16.857Z,26.37
2018-11-27T19:56:46.974Z,24.67
2018-11-27T19:59:17.185Z,22.80
2018-11-27T20:01:47.293Z,29.95
2018-11-27T20:04:17.413Z,31.82
2018-11-27T20:06:47.526Z,28.23
2018-11-27T20:09:17.817Z,28.52
2018-11-27T20:11:47.983Z,37.05
2018-11-27T20:14:18.370Z,26.97
2018-11-27T20:16:48.489Z,19.15
2018-11-27T20:19:18.798Z,20.62
2018-11-27T20:21:49.001Z,24.72
2018-11-27T20:24:21.208Z,22.90
2018-11-27T20:26:51.415Z,23.42
2018-11-27T20:29:21.648Z,34.67
2018-11-27T20:31:51.890Z,23.40
2018-11-27T20:34:22.054Z,19.05
2018-11-27T20:36:52.356Z,24.27
2018-11-27T20:39:22.652Z,24.95
2018-11-27T20:41:52.946Z,23.35
2018-11-27T20:44:23.148Z,20.82
2018-11-27T20:46:53.234Z,23.77
2018-11-27T20:49:23.589Z,22.27
2018-11-27T20:51:53.631Z,21.50
2018-11-27T20:54:23.841Z,19.80
2018-11-27T20:56:53.911Z,21.45
2018-11-27T20:59:24.226Z,28.27
2018-11-27T21:01:54.869Z,15.58
2018-11-27T21:04:25.188Z,20.85
2018-11-27T21:06:55.384Z,29.32
2018-11-27T21:09:25.595Z,30.15
2018-11-27T21:11:59.117Z,22.98
2018-11-27T21:14:28.466Z,22.45
2018-11-27T21:16:58.492Z,23.30
2018-11-27T21:19:27.964Z,25.52
2018-11-27T21:21:56.876Z,25.92
2018-11-27T21:24:28.815Z,26.55
2018-11-27T21:26:57.444Z,21.00
2018-11-27T21:29:29.638Z,24.63
2018-11-27T21:31:58.112Z,26.17
2018-11-27T21:34:26.494Z,27.80
2018-11-27T21:36:54.387Z,26.48
2018-11-27T21:39:22.536Z,27.35
2018-11-27T21:41:50.470Z,26.25
2018-11-27T21:44:18.395Z,27.80
2018-11-27T21:46:46.286Z,30.48
2018-11-27T21:49:15.134Z,30.97
2018-11-27T21:51:42.938Z,17.62
2018-11-27T21:54:10.632Z,20.68
2018-11-27T21:56:38.362Z,33.33
2018-11-27T21:59:06.466Z,26.82
2018-11-27T22:01:34.591Z,24.25
2018-11-27T22:04:02.730Z,25.80
2018-11-27T22:06:30.875Z,29.07
2018-11-27T22:08:58.482Z,23.77
2018-11-27T22:11:26.393Z,25.10
2018-11-27T22:13:54.119Z,26.07
2018-11-27T22:16:21.823Z,33.13
2018-11-27T22:18:49.847Z,22.77
2018-11-27T22:21:17.799Z,25.70
2018-11-27T22:23:45.551Z,33.33
2018-11-27T22:26:13.426Z,36.73
2018-11-27T22:28:41.294Z,30.52
2018-11-27T22:31:09.120Z,27.95
2018-11-27T22:33:36.883Z,31.52
2018-11-27T22:36:04.799Z,29.92
2018-11-27T22:38:32.511Z,22.58
2018-11-27T22:41:00.223Z,32.05
2018-11-27T22:43:27.915Z,23.02
2018-11-27T22:45:55.738Z,19.17
2018-11-27T22:48:23.450Z,31.93
2018-11-27T22:50:51.106Z,28.45
2018-11-27T22:53:18.863Z,25.90
2018-11-27T22:55:46.565Z,26.90
2018-11-27T22:58:14.220Z,22.20
2018-11-27T23:00:47.619Z,23.30
2018-11-27T23:03:15.382Z,23.83
2018-11-27T23:05:43.103Z,29.50
2018-11-27T23:08:10.921Z,25.52
2018-11-27T23:10:39.770Z,29.27
2018-11-27T23:13:07.430Z,24.32
2018-11-27T23:15:35.087Z,29.75
2018-11-27T23:18:02.851Z,24.15
2018-11-27T23:20:30.598Z,28.87
2018-11-27T23:22:58.259Z,23.60
2018-11-27T23:25:25.984Z,23.20
2018-11-27T23:27:53.735Z,28.85
2018-11-27T23:30:22.776Z,24.40
2018-11-27T23:32:50.542Z,21.33
2018-11-27T23:35:18.283Z,22.30
2018-11-27T23:37:45.926Z,32.42
2018-11-27T23:40:14.951Z,26.33
2018-11-27T23:42:43.058Z,19.67
2018-11-27T23:45:13.554Z,18.80
2018-11-27T23:47:41.281Z,26.75
2018-11-27T23:50:11.194Z,25.52
2018-11-27T23:52:43.043Z,21.10
2018-11-27T23:55:11.562Z,22.37
2018-11-27T23:57:39.566Z,26.27
